createdAt,value
2018-08-30T00:02:14.789Z,18.25
2018-08-30T00:04:46.917Z,18.22
2018-08-30T00:07:19.077Z,18.20
2018-08-30T00:09:51.147Z,18.19
2018-08-30T00:12:23.228Z,18.17
2018-08-30T00:14:55.319Z,18.15
2018-08-30T00:17:27.367Z,18.18
2018-08-30T00:19:59.506Z,18.16
2018-08-30T00:22:31.626Z,18.15
2018-08-30T00:25:03.751Z,18.15
2018-08-30T00:27:35.831Z,18.14
2018-08-30T00:30:08.015Z,18.14
2018-08-30T00:32:40.051Z,18.15
2018-08-30T00:35:12.228Z,18.08
2018-08-30T00:37:44.452Z,18.15
2018-08-30T00:40:16.568Z,18.13
2018-08-30T00:42:48.674Z,18.11
2018-08-30T00:45:20.846Z,18.12
2018-08-30T00:47:52.943Z,18.06
2018-08-30T00:50:25.031Z,18.05
2018-08-30T00:52:57.148Z,17.99
2018-08-30T00:55:29.205Z,18.05
2018-08-30T00:58:01.287Z,18.11
2018-08-30T01:00:33.364Z,18.06
2018-08-30T01:03:05.460Z,17.97
2018-08-30T01:05:37.594Z,17.98
2018-08-30T01:08:09.667Z,18.04
2018-08-30T01:10:41.776Z,18.05
2018-08-30T01:13:13.870Z,17.96
2018-08-30T01:15:45.982Z,18.05
2018-08-30T01:18:20.228Z,17.94
2018-08-30T01:20:52.378Z,17.99
2018-08-30T01:23:24.466Z,17.89
2018-08-30T01:25:56.609Z,17.94
2018-08-30T01:28:28.792Z,17.95
2018-08-30T01:31:01.165Z,17.98
2018-08-30T01:33:33.213Z,17.91
2018-08-30T01:36:07.507Z,17.95
2018-08-30T01:38:39.720Z,17.91
2018-08-30T01:41:11.822Z,17.87
2018-08-30T01:43:43.874Z,17.96
2018-08-30T01:46:16.001Z,17.96
2018-08-30T01:48:48.066Z,17.89
2018-08-30T01:51:20.311Z,17.82
2018-08-30T01:53:52.549Z,17.82
2018-08-30T01:56:24.752Z,17.77
2018-08-30T01:58:56.888Z,17.78
2018-08-30T02:01:29.301Z,17.77
2018-08-30T02:04:01.576Z,17.79
2018-08-30T02:06:33.789Z,17.71
2018-08-30T02:09:06.000Z,17.70
2018-08-30T02:11:38.207Z,17.65
2018-08-30T02:14:10.452Z,17.69
2018-08-30T02:16:42.650Z,17.61
2018-08-30T02:19:14.778Z,17.58
2018-08-30T02:21:46.959Z,17.57
2018-08-30T02:24:19.279Z,17.54
2018-08-30T02:26:51.513Z,17.50
2018-08-30T02:29:23.786Z,17.48
2018-08-30T02:31:55.942Z,17.42
2018-08-30T02:34:28.044Z,17.31
2018-08-30T02:37:00.187Z,17.37
2018-08-30T02:39:32.311Z,17.35
2018-08-30T02:42:04.520Z,17.36
2018-08-30T02:44:36.637Z,17.39
2018-08-30T02:47:08.719Z,17.36
2018-08-30T02:49:41.547Z,17.44
2018-08-30T02:52:13.680Z,17.44
2018-08-30T02:54:45.773Z,17.43
2018-08-30T02:57:17.959Z,17.51
2018-08-30T02:59:50.079Z,17.50
2018-08-30T03:02:22.210Z,17.52
2018-08-30T03:04:54.328Z,17.55
2018-08-30T03:07:26.473Z,17.58
2018-08-30T03:09:58.565Z,17.57
2018-08-30T03:12:30.739Z,17.55
2018-08-30T03:15:08.469Z,17.52
2018-08-30T03:17:40.575Z,17.55
2018-08-30T03:20:13.829Z,17.53
2018-08-30T03:22:46.064Z,17.52
2018-08-30T03:25:18.197Z,17.50
2018-08-30T03:27:50.299Z,17.50
2018-08-30T03:30:22.473Z,17.52
2018-08-30T03:32:54.542Z,17.57
2018-08-30T03:35:26.620Z,17.58
2018-08-30T03:37:58.795Z,17.64
2018-08-30T03:40:31.045Z,17.63
2018-08-30T03:43:03.809Z,17.69
2018-08-30T03:45:35.953Z,17.64
2018-08-30T03:48:08.086Z,17.60
2018-08-30T03:50:40.563Z,17.59
2018-08-30T03:53:12.662Z,17.65
2018-08-30T03:55:44.818Z,17.67
2018-08-30T03:58:16.923Z,17.67
2018-08-30T04:00:49.005Z,17.63
2018-08-30T04:03:21.176Z,17.62
2018-08-30T04:05:53.275Z,17.58
2018-08-30T04:08:25.383Z,17.60
2018-08-30T04:10:57.543Z,17.57
2018-08-30T04:13:29.696Z,17.55
2018-08-30T04:16:01.729Z,17.54
2018-08-30T04:18:33.911Z,17.54
2018-08-30T04:21:05.995Z,17.55
2018-08-30T04:23:38.096Z,17.55
2018-08-30T04:26:10.174Z,17.56
2018-08-30T04:28:42.284Z,17.55
2018-08-30T04:31:14.367Z,17.56
2018-08-30T04:33:46.415Z,17.58
2018-08-30T04:36:18.491Z,17.53
2018-08-30T04:38:50.561Z,17.57
2018-08-30T04:41:23.202Z,17.58
2018-08-30T04:43:55.311Z,17.57
2018-08-30T04:46:27.475Z,17.57
2018-08-30T04:48:59.623Z,17.61
2018-08-30T04:51:31.710Z,17.53
2018-08-30T04:54:04.502Z,17.55
2018-08-30T04:56:36.575Z,17.51
2018-08-30T04:59:08.666Z,17.40
2018-08-30T05:01:40.825Z,17.35
2018-08-30T05:04:12.883Z,17.33
2018-08-30T05:06:44.997Z,17.27
2018-08-30T05:09:17.090Z,17.35
2018-08-30T05:11:49.237Z,17.33
2018-08-30T05:14:21.338Z,17.39
2018-08-30T05:16:53.423Z,17.39
2018-08-30T05:19:25.504Z,17.40
2018-08-30T05:21:57.604Z,17.33
2018-08-30T05:24:29.732Z,17.25
2018-08-30T05:27:02.003Z,17.28
2018-08-30T05:29:34.100Z,17.24
2018-08-30T05:32:06.188Z,17.20
2018-08-30T05:34:38.228Z,17.27
2018-08-30T05:37:10.379Z,17.27
2018-08-30T05:39:42.465Z,17.27
2018-08-30T05:42:14.527Z,17.24
2018-08-30T05:44:46.745Z,17.32
2018-08-30T05:47:18.783Z,17.55
2018-08-30T05:49:50.868Z,17.68
2018-08-30T05:52:22.994Z,17.74
2018-08-30T05:54:55.126Z,17.76
2018-08-30T05:57:27.197Z,17.85
2018-08-30T05:59:59.516Z,17.90
2018-08-30T06:02:31.627Z,18.02
2018-08-30T06:05:03.790Z,18.15
2018-08-30T06:07:35.924Z,18.15
2018-08-30T06:10:08.087Z,18.35
2018-08-30T06:12:40.167Z,18.55
2018-08-30T06:15:12.319Z,18.75
2018-08-30T06:17:44.446Z,18.78
2018-08-30T06:20:16.541Z,18.91
2018-08-30T06:22:48.958Z,18.92
2018-08-30T06:25:21.533Z,19.08
2018-08-30T06:27:53.735Z,18.94
2018-08-30T06:30:26.969Z,18.88
2018-08-30T06:32:59.138Z,18.92
2018-08-30T06:35:31.296Z,18.94
2018-08-30T06:38:03.395Z,19.11
2018-08-30T06:40:35.535Z,19.08
2018-08-30T06:43:07.687Z,18.98
2018-08-30T06:45:39.807Z,19.06
2018-08-30T06:48:11.969Z,19.04
2018-08-30T06:50:44.329Z,19.11
2018-08-30T06:53:16.470Z,19.19
2018-08-30T06:55:48.639Z,19.24
2018-08-30T06:58:20.746Z,19.49
2018-08-30T07:00:52.872Z,19.58
2018-08-30T07:03:24.958Z,19.58
2018-08-30T07:05:57.044Z,19.62
2018-08-30T07:08:29.253Z,19.92
2018-08-30T07:11:01.441Z,19.98
2018-08-30T07:13:33.485Z,19.95
2018-08-30T07:16:06.954Z,19.83
2018-08-30T07:18:39.096Z,20.05
2018-08-30T07:21:11.249Z,20.22
2018-08-30T07:23:43.431Z,19.91
2018-08-30T07:29:13.632Z,19.80
2018-08-30T07:31:46.691Z,19.97
2018-08-30T07:34:18.900Z,20.41
2018-08-30T07:36:50.853Z,20.71
2018-08-30T07:39:22.923Z,21.04
2018-08-30T07:41:54.976Z,21.40
2018-08-30T07:44:27.164Z,22.43
2018-08-30T07:46:59.152Z,21.89
2018-08-30T07:49:34.719Z,21.65
2018-08-30T07:52:06.896Z,21.00
2018-08-30T07:54:39.168Z,20.88
2018-08-30T07:57:11.264Z,21.11
2018-08-30T07:59:43.441Z,20.87
2018-08-30T08:02:15.647Z,20.83
2018-08-30T08:04:47.767Z,20.65
2018-08-30T08:07:20.601Z,20.60
2018-08-30T08:09:52.665Z,20.47
2018-08-30T08:12:24.908Z,20.05
2018-08-30T08:14:57.093Z,20.01
2018-08-30T08:17:29.335Z,19.97
2018-08-30T08:20:01.409Z,19.94
2018-08-30T08:22:33.598Z,20.04
2018-08-30T08:25:05.821Z,19.92
2018-08-30T08:27:37.893Z,20.13
2018-08-30T08:30:10.100Z,20.19
2018-08-30T08:32:42.308Z,20.07
2018-08-30T08:35:14.405Z,20.19
2018-08-30T08:37:46.558Z,20.02
2018-08-30T08:40:18.644Z,20.05
2018-08-30T08:42:50.817Z,20.09
2018-08-30T08:45:22.954Z,20.41
2018-08-30T08:47:55.064Z,20.50
2018-08-30T08:50:27.251Z,20.84
2018-08-30T08:52:59.300Z,21.83
2018-08-30T08:55:31.368Z,22.25
2018-08-30T08:58:03.607Z,22.78
2018-08-30T09:00:35.708Z,22.57
2018-08-30T09:03:07.903Z,22.57
2018-08-30T09:05:40.042Z,22.53
2018-08-30T09:08:12.119Z,22.61
2018-08-30T09:10:44.183Z,22.96
2018-08-30T09:13:16.360Z,23.23
2018-08-30T09:15:48.529Z,22.90
2018-08-30T09:18:20.681Z,22.83
2018-08-30T09:20:52.792Z,23.04
2018-08-30T09:23:25.002Z,22.84
2018-08-30T09:25:57.068Z,22.54
2018-08-30T09:28:29.151Z,22.95
2018-08-30T09:31:01.364Z,22.75
2018-08-30T09:33:33.425Z,22.55
2018-08-30T09:36:05.745Z,22.66
2018-08-30T09:38:37.796Z,22.82
2018-08-30T09:41:09.852Z,22.87
2018-08-30T09:50:46.079Z,21.89
2018-08-30T09:53:18.351Z,21.79
2018-08-30T09:55:50.627Z,22.15
2018-08-30T09:58:22.700Z,22.48
2018-08-30T10:01:00.714Z,22.89
2018-08-30T10:03:32.929Z,22.93
2018-08-30T10:06:05.090Z,23.10
2018-08-30T10:08:37.216Z,23.37
2018-08-30T10:11:09.414Z,23.05
2018-08-30T10:13:41.569Z,23.16
2018-08-30T10:16:13.791Z,23.44
2018-08-30T10:18:45.873Z,23.83
2018-08-30T10:21:18.095Z,24.56
2018-08-30T10:23:52.546Z,24.83
2018-08-30T10:26:24.705Z,24.81
2018-08-30T10:28:56.821Z,24.63
2018-08-30T10:31:29.106Z,24.03
2018-08-30T10:34:02.221Z,23.95
2018-08-30T10:36:34.419Z,22.77
2018-08-30T10:39:08.157Z,21.69
2018-08-30T10:41:40.266Z,20.73
2018-08-30T10:44:12.450Z,20.51
2018-08-30T10:46:44.544Z,20.35
2018-08-30T10:49:16.747Z,20.11
2018-08-30T10:51:48.936Z,20.24
2018-08-30T10:54:21.114Z,20.32
2018-08-30T10:56:53.291Z,20.68
2018-08-30T10:59:25.470Z,20.76
2018-08-30T11:01:57.608Z,21.15
2018-08-30T11:04:31.760Z,21.82
2018-08-30T11:07:03.998Z,22.65
2018-08-30T11:09:36.123Z,23.07
2018-08-30T11:12:08.626Z,23.14
2018-08-30T11:14:40.686Z,22.72
2018-08-30T11:17:12.805Z,22.97
2018-08-30T11:19:44.953Z,23.17
2018-08-30T11:22:17.057Z,23.32
2018-08-30T11:24:49.157Z,23.73
2018-08-30T11:27:21.323Z,23.79
2018-08-30T11:29:53.519Z,23.58
2018-08-30T11:32:25.609Z,23.97
2018-08-30T11:34:57.754Z,24.39
2018-08-30T11:37:29.945Z,24.41
2018-08-30T11:40:02.064Z,24.11
2018-08-30T11:42:34.189Z,24.28
2018-08-30T11:45:06.954Z,24.33
2018-08-30T11:47:45.545Z,24.19
2018-08-30T11:50:17.631Z,23.31
2018-08-30T11:52:49.793Z,22.72
2018-08-30T11:55:21.953Z,22.92
2018-08-30T11:57:54.137Z,22.55
2018-08-30T12:00:26.393Z,22.83
2018-08-30T12:02:59.275Z,23.08
2018-08-30T12:05:31.756Z,23.68
2018-08-30T12:08:05.096Z,23.67
2018-08-30T12:10:37.983Z,24.69
2018-08-30T12:13:10.109Z,24.83
2018-08-30T12:15:42.235Z,24.82
2018-08-30T12:18:14.459Z,24.71
2018-08-30T12:20:46.888Z,24.42
2018-08-30T12:23:18.840Z,24.16
2018-08-30T12:25:51.548Z,24.03
2018-08-30T12:28:23.654Z,24.20
2018-08-30T12:30:55.835Z,24.03
2018-08-30T12:33:27.963Z,23.92
2018-08-30T12:36:00.180Z,23.68
2018-08-30T12:38:32.154Z,24.24
2018-08-30T12:41:04.319Z,24.47
2018-08-30T12:43:36.524Z,24.34
2018-08-30T12:46:08.513Z,25.33
2018-08-30T12:48:40.690Z,26.06
2018-08-30T12:51:13.016Z,26.13
2018-08-30T12:53:45.008Z,25.58
2018-08-30T12:56:17.118Z,24.93
2018-08-30T12:58:53.753Z,24.65
2018-08-30T13:01:25.834Z,24.76
2018-08-30T13:03:58.093Z,24.65
2018-08-30T13:06:30.093Z,24.63
2018-08-30T13:09:02.613Z,24.89
2018-08-30T13:11:34.415Z,24.63
2018-08-30T13:14:06.587Z,25.29
2018-08-30T13:16:38.590Z,25.58
2018-08-30T13:19:10.881Z,26.26
2018-08-30T13:21:42.935Z,26.19
2018-08-30T13:24:15.206Z,26.43
2018-08-30T13:26:47.295Z,27.14
2018-08-30T13:29:19.441Z,27.28
2018-08-30T13:31:51.732Z,26.11
2018-08-30T13:34:24.011Z,27.53
2018-08-30T13:36:56.029Z,27.25
2018-08-30T13:39:28.224Z,26.25
2018-08-30T13:42:00.276Z,25.25
2018-08-30T13:44:32.231Z,25.40
2018-08-30T13:47:04.424Z,27.18
2018-08-30T13:49:36.219Z,27.31
2018-08-30T13:52:08.574Z,26.69
2018-08-30T13:54:40.561Z,25.75
2018-08-30T13:57:12.793Z,25.76
2018-08-30T13:59:45.093Z,26.53
2018-08-30T14:02:16.948Z,25.72
2018-08-30T14:04:49.303Z,25.21
2018-08-30T14:07:21.464Z,24.91
2018-08-30T14:09:53.555Z,24.29
2018-08-30T14:12:25.678Z,24.53
2018-08-30T14:14:57.805Z,24.67
2018-08-30T14:17:29.770Z,24.28
2018-08-30T14:20:01.855Z,25.33
2018-08-30T14:22:34.049Z,25.11
2018-08-30T14:25:06.115Z,24.05
2018-08-30T14:27:38.239Z,24.96
2018-08-30T14:30:10.391Z,26.31
2018-08-30T14:32:42.479Z,27.90
2018-08-30T14:35:14.678Z,27.69
2018-08-30T14:37:46.848Z,27.22
2018-08-30T14:40:18.929Z,27.75
2018-08-30T14:42:50.987Z,28.05
2018-08-30T14:45:23.049Z,26.52
2018-08-30T14:47:55.169Z,25.99
2018-08-30T14:50:27.236Z,27.09
2018-08-30T14:52:59.316Z,26.59
2018-08-30T14:55:31.489Z,26.37
2018-08-30T14:58:03.682Z,26.43
2018-08-30T15:00:35.809Z,27.15
2018-08-30T15:03:08.069Z,27.92
2018-08-30T15:05:40.323Z,27.87
2018-08-30T15:08:12.299Z,27.70
2018-08-30T15:10:44.363Z,28.08
2018-08-30T15:13:16.429Z,26.14
2018-08-30T15:15:48.640Z,25.21
2018-08-30T15:18:20.872Z,26.26
2018-08-30T15:20:53.042Z,25.92
2018-08-30T15:23:25.277Z,26.18
2018-08-30T15:25:57.193Z,25.99
2018-08-30T15:28:29.386Z,26.37
2018-08-30T15:31:01.558Z,25.97
2018-08-30T15:33:33.745Z,24.47
2018-08-30T15:36:05.945Z,25.39
2018-08-30T15:38:38.044Z,25.65
2018-08-30T15:41:10.672Z,24.46
2018-08-30T15:43:42.809Z,24.91
2018-08-30T15:46:14.884Z,24.56
2018-08-30T15:48:47.200Z,24.28
2018-08-30T15:51:19.076Z,24.29
2018-08-30T15:53:51.143Z,23.70
2018-08-30T15:56:23.236Z,23.02
2018-08-30T15:58:55.343Z,22.71
2018-08-30T16:01:27.555Z,22.57
2018-08-30T16:03:59.607Z,22.23
2018-08-30T16:06:31.692Z,21.90
2018-08-30T16:09:06.362Z,22.01
2018-08-30T16:11:38.495Z,21.66
2018-08-30T16:14:10.635Z,21.62
2018-08-30T16:16:42.772Z,21.45
2018-08-30T16:19:14.918Z,21.51
2018-08-30T16:21:47.040Z,21.26
2018-08-30T16:24:19.162Z,21.16
2018-08-30T16:26:51.200Z,21.15
2018-08-30T16:29:23.518Z,21.28
2018-08-30T16:31:55.460Z,20.73
2018-08-30T16:34:27.750Z,20.77
2018-08-30T16:36:59.900Z,20.86
2018-08-30T16:39:31.979Z,20.76
2018-08-30T16:42:04.135Z,20.69
2018-08-30T16:44:36.238Z,20.42
2018-08-30T16:47:08.401Z,20.48
2018-08-30T16:49:41.460Z,20.45
2018-08-30T16:52:13.600Z,20.34
2018-08-30T16:54:45.695Z,20.16
2018-08-30T16:57:17.923Z,20.08
2018-08-30T16:59:49.976Z,20.03
2018-08-30T17:02:22.241Z,19.92
2018-08-30T17:04:54.210Z,19.82
2018-08-30T17:07:26.359Z,19.76
2018-08-30T17:09:58.533Z,19.68
2018-08-30T17:12:30.707Z,19.62
2018-08-30T17:15:03.423Z,19.51
2018-08-30T17:17:36.554Z,19.51
2018-08-30T17:20:11.676Z,19.36
2018-08-30T17:22:43.856Z,19.21
2018-08-30T17:25:15.966Z,19.18
2018-08-30T17:27:48.032Z,19.06
2018-08-30T17:30:20.172Z,18.98
2018-08-30T17:32:52.320Z,18.82
2018-08-30T17:35:24.812Z,18.71
2018-08-30T17:37:56.954Z,18.59
2018-08-30T17:40:29.107Z,18.59
2018-08-30T17:43:01.285Z,18.42
2018-08-30T17:45:33.564Z,18.36
2018-08-30T17:48:05.678Z,18.20
2018-08-30T17:50:38.851Z,18.16
2018-08-30T17:53:10.943Z,17.93
2018-08-30T17:55:43.215Z,17.69
2018-08-30T17:58:15.773Z,17.49
2018-08-30T18:00:47.920Z,17.41
2018-08-30T18:03:20.046Z,17.35
2018-08-30T18:05:52.143Z,17.34
2018-08-30T18:08:24.245Z,17.22
2018-08-30T18:10:56.364Z,17.17
2018-08-30T18:13:28.399Z,17.24
2018-08-30T18:16:00.539Z,17.20
2018-08-30T18:18:32.727Z,17.10
2018-08-30T18:21:04.812Z,16.99
2018-08-30T18:23:36.926Z,16.81
2018-08-30T18:26:09.059Z,16.61
2018-08-30T18:28:41.137Z,16.48
2018-08-30T18:31:13.250Z,16.41
2018-08-30T18:33:45.360Z,16.36
2018-08-30T18:36:17.420Z,16.32
2018-08-30T18:38:49.512Z,16.31
2018-08-30T18:41:21.642Z,16.30
2018-08-30T18:43:53.776Z,16.39
2018-08-30T18:46:25.932Z,16.32
2018-08-30T18:48:57.987Z,16.20
2018-08-30T18:51:30.349Z,16.35
2018-08-30T18:54:02.532Z,16.32
2018-08-30T18:56:34.625Z,16.24
2018-08-30T18:59:06.711Z,16.12
2018-08-30T19:01:38.789Z,16.04
2018-08-30T19:04:10.837Z,16.15
2018-08-30T19:06:42.910Z,16.15
2018-08-30T19:09:14.982Z,16.03
2018-08-30T19:11:47.053Z,15.86
2018-08-30T19:14:21.432Z,15.69
2018-08-30T19:16:59.093Z,15.47
2018-08-30T19:19:33.419Z,15.27
2018-08-30T19:22:05.527Z,15.27
2018-08-30T19:24:43.336Z,15.09
2018-08-30T19:27:15.444Z,15.06
2018-08-30T19:29:53.254Z,15.14
2018-08-30T19:32:25.394Z,15.14
2018-08-30T19:35:02.055Z,14.98
2018-08-30T19:37:34.177Z,14.88
2018-08-30T19:40:10.111Z,14.81
2018-08-30T19:42:42.326Z,14.62
2018-08-30T19:45:14.400Z,14.44
2018-08-30T19:47:46.476Z,14.39
2018-08-30T19:50:18.555Z,14.36
2018-08-30T19:52:50.623Z,14.35
2018-08-30T19:55:22.725Z,14.17
2018-08-30T19:57:54.981Z,14.33
2018-08-30T20:00:27.141Z,14.19
2018-08-30T20:02:59.176Z,14.10
2018-08-30T20:05:31.251Z,14.06
2018-08-30T20:08:03.599Z,14.01
2018-08-30T20:10:35.713Z,13.99
2018-08-30T20:13:07.804Z,14.14
2018-08-30T20:15:39.964Z,14.19
2018-08-30T20:18:12.179Z,14.08
2018-08-30T20:20:44.356Z,13.98
2018-08-30T20:23:16.488Z,14.03
2018-08-30T20:25:48.591Z,14.03
2018-08-30T20:28:20.708Z,13.93
2018-08-30T20:30:52.790Z,13.81
2018-08-30T20:33:24.808Z,13.85
2018-08-30T20:35:56.843Z,13.74
2018-08-30T20:38:28.924Z,13.69
2018-08-30T20:41:01.018Z,13.62
2018-08-30T20:43:33.030Z,13.53
2018-08-30T20:46:05.133Z,13.49
2018-08-30T20:48:38.000Z,13.42
2018-08-30T20:51:10.064Z,13.27
2018-08-30T20:53:42.125Z,13.24
2018-08-30T20:56:14.232Z,13.38
2018-08-30T20:58:46.339Z,13.30
2018-08-30T21:01:18.399Z,13.32
2018-08-30T21:03:50.494Z,13.35
2018-08-30T21:06:22.650Z,13.22
2018-08-30T21:08:54.715Z,13.12
2018-08-30T21:11:26.780Z,13.07
2018-08-30T21:13:58.876Z,13.00
2018-08-30T21:16:31.007Z,13.14
2018-08-30T21:19:03.039Z,13.28
2018-08-30T21:21:35.106Z,13.30
2018-08-30T21:24:07.151Z,13.19
2018-08-30T21:26:39.242Z,13.07
2018-08-30T21:29:11.390Z,13.16
2018-08-30T21:31:43.470Z,13.14
2018-08-30T21:34:15.600Z,13.02
2018-08-30T21:36:47.652Z,12.90
2018-08-30T21:39:19.754Z,12.88
2018-08-30T21:41:51.875Z,12.97
2018-08-30T21:44:23.967Z,13.05
2018-08-30T21:46:56.063Z,13.17
2018-08-30T21:49:28.158Z,13.27
2018-08-30T21:52:00.283Z,13.26
2018-08-30T21:54:32.334Z,13.27
2018-08-30T21:57:04.430Z,13.27
2018-08-30T21:59:36.460Z,13.23
2018-08-30T22:02:08.521Z,13.21
2018-08-30T22:04:40.609Z,13.10
2018-08-30T22:07:12.724Z,13.00
2018-08-30T22:09:44.791Z,12.93
2018-08-30T22:12:16.852Z,12.86
2018-08-30T22:14:48.912Z,12.80
2018-08-30T22:17:20.979Z,12.87
2018-08-30T22:19:53.062Z,12.83
2018-08-30T22:22:25.167Z,12.82
2018-08-30T22:24:57.235Z,12.79
2018-08-30T22:27:29.382Z,12.77
2018-08-30T22:30:01.486Z,12.65
2018-08-30T22:32:33.571Z,12.56
2018-08-30T22:35:06.055Z,12.48
2018-08-30T22:37:38.141Z,12.43
2018-08-30T22:40:10.248Z,12.38
2018-08-30T22:42:42.296Z,12.33
2018-08-30T22:45:14.392Z,12.34
2018-08-30T22:47:46.500Z,12.47
2018-08-30T22:50:18.546Z,12.50
2018-08-30T22:52:50.636Z,12.50
2018-08-30T22:55:22.689Z,12.44
2018-08-30T22:57:54.855Z,12.45
2018-08-30T23:00:27.020Z,12.37
2018-08-30T23:02:59.120Z,12.39
2018-08-30T23:05:31.257Z,12.29
2018-08-30T23:08:03.432Z,12.32
2018-08-30T23:10:36.087Z,12.35
2018-08-30T23:13:08.179Z,12.29
2018-08-30T23:15:40.243Z,12.30
2018-08-30T23:18:12.387Z,12.24
2018-08-30T23:20:44.523Z,12.21
2018-08-30T23:23:16.636Z,12.20
2018-08-30T23:25:48.763Z,12.21
2018-08-30T23:28:20.827Z,12.11
2018-08-30T23:30:52.836Z,12.02
2018-08-30T23:33:24.879Z,11.97
2018-08-30T23:35:56.944Z,11.92
2018-08-30T23:38:29.051Z,11.93
2018-08-30T23:41:01.121Z,11.93
2018-08-30T23:43:33.156Z,11.81
2018-08-30T23:46:05.212Z,11.73
2018-08-30T23:48:37.264Z,11.88
2018-08-30T23:51:09.286Z,12.03
2018-08-30T23:53:41.321Z,12.05
2018-08-30T23:56:13.426Z,12.03
2018-08-30T23:58:56.965Z,11.92
